< < Back
Terminal Aerodrome Forecast


Current Version              Previous Versions:   1  2  3  4  5  6  7  8  9  

Terminal Aerodrome Forecast

401
FTUS42 KFFC 251141
TAFPDK
TAF
KPDK 251141Z 2512/2612 00000KT P6SM FEW120
     FM251500 26004KT P6SM SCT035
     FM251800 24006KT P6SM VCSH SCT050
      TEMPO 2518/2522 4SM -TSRA BR BKN035CB
     FM260100 24003KT P6SM SCT100=

Latest METAR

608
SAUS70 KWBC 251356
MTRPDK
METAR KPDK 251353Z 31003KT 10SM FEW110 30/22 A3011 RMK AO2 SLP174
T03000217


USA.gov is the U.S. government's official web portal to all federal, state and local government web resources and services.